Stations météo

Publicité
Embrun, France (7591): Température de l'air & dewpoint: 11.12.2017 03:00:00 - 17.12.2017 03:00:00 (CET)Embrun, France (7591): Température de l'air 5cm: 11.12.2017 03:00:00 - 17.12.2017 03:00:00 (CET)Embrun, France (7591): Température de l'air -20cm & Température de l'air -100cm: 11.12.2017 03:00:00 - 17.12.2017 03:00:00 (CET)Embrun, France (7591): Vitesse du vent & gusts: 11.12.2017 03:00:00 - 17.12.2017 03:00:00 (CET)Embrun, France (7591): Direction du vent: 11.12.2017 03:00:00 - 17.12.2017 03:00:00 (CET)Embrun, France (7591): visibility: 11.12.2017 03:00:00 - 17.12.2017 03:00:00 (CET)Embrun, France (7591): Ensoleillement: 11.12.2017 03:00:00 - 17.12.2017 03:00:00 (CET)Embrun, France (7591): Quantités de précipitations: 11.12.2017 03:00:00 - 17.12.2017 03:00:00 (CET)
Date & Time tt [°C] td [°C] tt 5cm [°C] tt -20cm [°C] tt -100cm [°C] ff [km/h] ff [knt] fx [km/h] fx [knt] dd vv [km] sd [min] rr [mm]
17.12.2017 03:00:00 -5,8 -10,6 -11,9 3,4 6,9 10 5 14 7 NE 16 0 0,0
17.12.2017 02:00:00 -5,8 -9,9 -11,5 3,4 6,9 3 2 8 4 NW 20 0 0,0
17.12.2017 01:00:00 -5,2 -10,2 -10,8 3,4 6,9 3 1 14 8 NNW 20 0 0,0
17.12.2017 00:00:00 -4,8 -10,0 -10,7 3,4 6,9 3 1 9 5 ENE 20 0 0,0
16.12.2017 23:00:00 -4,5 -9,1 -10,5 3,4 6,9 3 2 8 4 N 20 0 0,0
16.12.2017 22:00:00 -4,2 -7,6 -9,6 3,4 6,9 4 2 9 5 WSW 20 0 0,0
16.12.2017 21:00:00 -3,0 -8,1 -10,0 3,3 6,9 2 1 7 4 SE 20 0 0,0
16.12.2017 20:00:00 -2,8 -7,5 -9,5 3,3 6,9 3 2 7 4 NNW 20 0 0,0
16.12.2017 19:00:00 -2,3 -6,3 -7,2 3,3 6,9 4 2 9 5 N 20 0 0,0
16.12.2017 18:00:00 -1,4 -5,4 -5,7 3,3 6,9 3 2 10 6 WSW 20 0 0,0
16.12.2017 17:00:00 -0,6 -6,6 -5,0 3,3 7,0 3 2 10 5 NNW 20 33 0,0
16.12.2017 16:00:00 2,9 -5,8 1,2 3,3 6,9 3 2 8 5 S 20 60 0,0
16.12.2017 15:00:00 3,4 -6,1 9,8 3,3 6,9 4 2 10 5 ENE 20 60 0,0
16.12.2017 14:00:00 3,3 -5,9 9,4 3,3 6,9 4 2 11 6 SE 20 60 0,0
16.12.2017 13:00:00 3,4 -4,6 9,7 3,3 6,9 6 3 11 6 SSE 20 60 0,0
16.12.2017 12:00:00 1,2 -5,3 6,0 3,3 6,9 5 3 16 8 NE 20 60 0,0
16.12.2017 11:00:00 0,0 -6,0 -0,9 3,3 6,9 13 7 27 15 NNE 20 56 0,0
16.12.2017 10:00:00 -1,2 -6,2 -2,1 3,3 6,9 17 9 31 17 NNE 20 28 0,0
16.12.2017 09:00:00 -2,1 -5,4 -2,7 3,3 7,0 12 6 22 12 NNE 20 0 0,0
16.12.2017 08:00:00 -2,2 -5,2 -2,7 3,3 7,0 8 4 20 11 NNE 20 0 0,0
16.12.2017 07:00:00 -2,3 -5,0 -2,8 3,3 7,0 8 4 16 9 NNE 20 0 0,0
16.12.2017 06:00:00 -2,5 -4,8 -2,8 3,3 7,0 6 3 12 6 NE 18 0 0,0
16.12.2017 05:00:00 -2,6 -4,6 -3,1 3,2 6,9 8 4 18 10 NNE 9 0 0,0
16.12.2017 04:00:00 -2,3 -5,0 -3,0 3,2 7,0 10 6 18 10 NNE 20 0 0,0
16.12.2017 03:00:00 -2,4 -4,3 -2,7 3,2 7,0 9 5 26 14 NNE 16 0 0,0
16.12.2017 02:00:00 -2,1 -4,4 -2,5 3,2 7,0 13 7 20 11 NNE 4,4 0 0,0
16.12.2017 01:00:00 -2,1 -3,7 -2,6 3,2 6,9 6 3 15 8 ENE 20 0 0,2
16.12.2017 00:00:00 -2,1 -3,2 -3,0 3,2 7,0 3 1 13 7 NNE 2,6 0 0,0
15.12.2017 23:00:00 -1,8 -4,5 -5,2 3,2 7,0 0 0 6 4 N 20 0 0,0
15.12.2017 22:00:00 -2,2 -4,1 -6,7 3,2 7,0 0 0 5 3 N 17 0 0,0
15.12.2017 21:00:00 -1,8 -4,1 -6,3 3,2 7,0 0 0 5 3 N 20 0 0,0
15.12.2017 20:00:00 -0,6 -4,8 -4,0 3,2 7,0 3 2 7 4 W 20 0 0,0
15.12.2017 19:00:00 -0,2 -3,4 -3,5 3,2 7,0 3 1 8 5 E 20 0 0,0
15.12.2017 18:00:00 -0,2 -3,1 -3,4 3,2 7,0 2 1 9 5 S 20 0 0,0
15.12.2017 17:00:00 1,4 -2,9 -1,6 3,2 7,0 0 0 15 8 N 20 22 0,0
15.12.2017 16:00:00 3,8 -3,3 3,3 3,2 7,0 7 4 14 8 SSW 20 60 0,0
15.12.2017 15:00:00 5,7 -2,4 8,8 3,2 7,0 5 3 19 10 S 20 60 0,0
15.12.2017 14:00:00 5,5 -1,7 3,5 3,1 7,0 8 4 21 11 S 20 55 0,0
15.12.2017 13:00:00 4,9 -1,1 2,5 3,2 7,0 9 5 17 9 SW 20 36 0,0
15.12.2017 12:00:00 2,7 -0,2 1,2 3,2 7,0 13 7 24 13 SSW 20 10 0,0
15.12.2017 11:00:00 2,0 0,5 0,8 3,2 7,0 10 6 22 12 S 20 7 0,0
15.12.2017 10:00:00 1,4 0,5 0,1 3,2 7,0 3 2 21 12 SSW 20 0 0,0
15.12.2017 09:00:00 1,2 -0,1 0,1 3,2 7,0 14 8 45 25 SSW 14 0 0,0
15.12.2017 08:00:00 2,1 0,0 0,0 3,2 7,1 10 5 28 15 SSW 20 0 0,0
15.12.2017 07:00:00 1,7 0,5 0,1 3,2 7,0 18 10 54 29 SSW 16 0 1,2
15.12.2017 06:00:00 4,3 1,5 0,0 3,2 7,0 21 11 44 24 SW 12 0 0,2
15.12.2017 05:00:00 4,1 1,8 0,0 3,2 7,0 21 11 41 22 SW 10 0 1,2
15.12.2017 04:00:00 3,9 1,9 0,0 3,2 7,0 13 7 45 24 SSW 20 0 0,6
15.12.2017 03:00:00 4,3 1,8 0,0 3,3 7,1 19 11 46 25 SSW 14 0 0,6
15.12.2017 02:00:00 4,5 1,5 0,0 3,3 7,1 15 8 52 28 SSW 14 0 0,6
15.12.2017 01:00:00 3,9 1,6 0,0 3,2 7,0 10 6 29 16 S 20 0 1,0
15.12.2017 00:00:00 3,8 1,2 0,0 3,2 7,0 7 4 20 11 S 20 0 0,2
14.12.2017 23:00:00 4,4 0,7 0,0 3,2 7,1 4 2 14 7 S 19 0 0,2
14.12.2017 22:00:00 4,1 0,6 0,0 3,2 7,0 7 4 22 12 SSW 20 0 0,0
14.12.2017 21:00:00 3,4 1,3 0,0 3,2 7,1 11 6 20 11 S 20 0 0,0
14.12.2017 20:00:00 2,9 1,6 0,0 3,2 7,0 8 4 21 12 S 19 0 0,2
14.12.2017 19:00:00 2,8 1,8 0,0 3,2 7,1 4 2 16 9 W 20 0 0,0
14.12.2017 18:00:00 2,9 2,2 0,0 3,2 7,0 9 5 19 11 S 20 0 0,0
14.12.2017 17:00:00 3,1 2,5 0,0 3,2 7,1 10 5 21 12 S 20 0 0,0
14.12.2017 16:00:00 3,4 2,7 0,0 3,2 7,1 11 6 16 9 SSW 20 0 0,0
14.12.2017 15:00:00 2,5 2,2 0,0 3,1 7,0 8 4 12 6 SSW 4,3 0 0,0
14.12.2017 14:00:00 2,3 1,6 0,0 3,1 7,1 8 5 15 8 SSW 11 2 0,0
14.12.2017 13:00:00 1,9 1,5 0,0 3,1 7,1 7 4 13 7 S 2,5 0 0,0
14.12.2017 12:00:00 1,6 1,2 0,0 3,1 7,1 7 4 13 7 SSW 4,9 0 0,0
14.12.2017 11:00:00 1,1 0,7 -0,2 3,1 7,1 10 5 14 7 SSW 18 0 0,0
14.12.2017 10:00:00 0,5 0,2 -0,4 3,1 7,1 0 0 10 6 N 3,5 0 0,0
14.12.2017 09:00:00 -0,2 -0,6 -0,6 3,1 7,1 0 0 6 4 N 7 0 0,0
14.12.2017 08:00:00 -0,2 -0,5 -0,7 3,1 7,1 2 1 6 4 NW 10 0 0,0
14.12.2017 07:00:00 -1,7 -2,4 -0,8 3,1 7,1 4 2 6 3 S 11 0 0,0
14.12.2017 06:00:00 -1,7 -2,4 -0,8 3,1 7,1 3 2 9 5 S 17 0 0,0
14.12.2017 05:00:00 -2,0 -2,7 -0,8 3,0 7,1 0 0 13 7 N 11 0 0,2
14.12.2017 04:00:00 -2,0 -2,6 -0,9 3,1 7,1 5 3 10 5 NNE 14 0 0,0
14.12.2017 03:00:00 -2,1 -2,5 -1,0 3,0 7,1 2 1 9 5 NE 9 0 0,4
14.12.2017 02:00:00 -2,1 -2,7 -1,2 3,0 7,1 5 3 9 5 NNE 2,5 0 0,8
14.12.2017 01:00:00 -2,1 -2,5 -1,4 3,0 7,1 5 3 11 6 ENE 2,4 0 1,3
14.12.2017 00:00:00 -2,0 -2,4 -1,6 3,0 7,1 0 0 6 3 N 1,8 0 2,2
13.12.2017 23:00:00 -2,1 -2,5 -1,8 3,0 7,1 5 3 10 6 NNE 0,5 0 2,2
13.12.2017 22:00:00 -2,0 -2,8 -2,0 3,0 7,1 3 1 8 4 NNE 0,9 0 1,0
13.12.2017 21:00:00 -0,8 -6,4 -2,4 3,0 7,1 4 2 15 8 ENE 6 0 0,0
13.12.2017 20:00:00 0,1 -7,9 -2,3 2,9 7,1 13 7 22 12 N 20 0 0,0
13.12.2017 19:00:00 -0,3 -6,9 -1,9 3,0 7,1 5 3 8 4 NE 20 0 0,0
13.12.2017 18:00:00 0,1 -7,9 -1,7 2,9 7,1 0 0 9 5 N 20 0 0,0
13.12.2017 17:00:00 0,4 -7,8 -1,4 2,9 7,1 0 0 11 6 N 20 0 0,0
13.12.2017 16:00:00 1,3 -8,8 -0,9 2,9 7,1 5 3 10 5 NNE 20 22 0,0
13.12.2017 15:00:00 2,0 -9,6 -0,2 2,9 7,1 8 4 16 9 NE 20 60 0,0
13.12.2017 14:00:00 1,3 -9,4 -1,1 2,9 7,1 12 6 26 14 NE 20 60 0,0
13.12.2017 13:00:00 0,2 -9,8 -1,7 2,9 7,1 15 8 26 14 NNE 20 60 0,0
13.12.2017 12:00:00 -0,6 -10,0 -2,9 2,8 7,1 16 9 33 18 NNE 20 60 0,0
13.12.2017 11:00:00 -1,7 -10,0 -4,6 2,8 7,1 18 10 39 21 N 20 60 0,0
13.12.2017 10:00:00 -2,7 -10,5 -6,2 2,8 7,1 20 11 39 21 N 20 46 0,0
13.12.2017 09:00:00 -4,4 -10,6 -6,3 2,8 7,1 23 12 48 26 NNE 20 0 0,0
13.12.2017 08:00:00 -4,3 -10,5 -6,0 2,8 7,1 24 13 38 20 NNE 20 0 0,0
13.12.2017 07:00:00 -3,8 -10,0 -6,0 2,8 7,1 16 9 38 21 N 20 0 0,0
13.12.2017 06:00:00 -3,2 -9,9 -5,4 2,7 7,1 25 14 41 22 N 20 0 0,0
13.12.2017 05:00:00 -2,7 -9,2 -5,2 2,7 7,1 20 11 31 17 N 20 0 0,0
13.12.2017 04:00:00 -2,2 -8,9 -4,7 2,7 7,1 19 11 32 17 N 20 0 0,0
13.12.2017 03:00:00 -1,2 -8,0 -4,4 2,7 7,1 18 10 32 17 N 20 0 0,0
13.12.2017 02:00:00 -1,4 -6,9 -4,6 2,7 7,1 16 9 24 13 N 20 0 0,0
13.12.2017 01:00:00 -2,0 -3,0 -4,9 2,6 7,1 14 8 19 10 NE 20 0 0,0
13.12.2017 00:00:00 -2,4 -3,2 -4,0 2,6 7,1 3 2 11 6 NNW 17 0 0,0
12.12.2017 23:00:00 -1,6 -3,3 -3,2 2,6 7,1 0 0 8 4 N 20 0 0,0
12.12.2017 22:00:00 -0,7 -2,3 -1,6 2,6 7,1 0 0 8 4 N 20 0 0,0
12.12.2017 21:00:00 0,3 -2,6 0,0 2,5 7,1 0 0 8 5 N 19 0 0,0
12.12.2017 20:00:00 1,0 -2,4 0,0 2,5 7,1 0 0 9 5 N 20 0 0,0
12.12.2017 19:00:00 2,1 -1,2 0,0 2,5 7,1 4 2 20 11 SSW 20 0 0,0
12.12.2017 18:00:00 3,1 0,5 0,0 2,5 7,1 11 6 22 12 SSW 20 0 0,0
12.12.2017 17:00:00 3,6 -0,1 0,0 2,5 7,1 6 3 16 9 S 20 0 0,0
12.12.2017 16:00:00 3,9 0,4 0,0 2,5 7,1 8 4 16 8 S 20 0 0,0
12.12.2017 15:00:00 4,4 0,4 0,0 2,4 7,1 9 5 16 9 SSW 20 0 0,0
12.12.2017 14:00:00 4,4 0,2 0,0 2,4 7,1 9 5 21 12 S 20 0 0,0
12.12.2017 13:00:00 4,6 0,0 0,0 2,4 7,1 8 4 17 9 S 20 1 0,0
12.12.2017 12:00:00 5,4 0,8 0,0 2,4 7,1 8 4 13 7 SW 20 57 0,0
12.12.2017 11:00:00 6,4 1,7 0,0 2,3 7,1 3 2 9 5 SW - 60 0,0
12.12.2017 10:00:00 3,5 1,7 0,0 2,3 7,1 2 1 6 4 SSW - 5 0,0
12.12.2017 09:00:00 2,0 1,4 0,0 2,3 7,1 3 1 10 5 WSW - 0 0,0
12.12.2017 08:00:00 1,8 1,2 0,0 2,3 7,1 4 2 11 6 SW - 0 0,0
12.12.2017 07:00:00 1,9 1,2 0,0 2,2 7,1 8 5 13 7 SSW - 0 0,0
12.12.2017 06:00:00 1,8 1,1 0,0 2,2 7,1 8 4 13 7 S - 0 0,0
12.12.2017 05:00:00 2,4 0,9 0,0 2,2 7,1 9 5 18 10 WSW - 0 0,0
12.12.2017 04:00:00 2,7 0,9 0,0 2,1 7,1 14 8 24 13 SSW - 0 0,0
12.12.2017 03:00:00 2,8 0,7 0,0 2,0 7,1 7 4 16 9 SSW - 0 0,0
12.12.2017 02:00:00 2,7 1,2 0,0 2,0 7,1 8 5 13 7 S - 0 0,0
12.12.2017 01:00:00 2,7 1,2 0,0 2,0 7,1 7 4 15 8 S - 0 0,0
12.12.2017 00:00:00 2,7 1,2 0,0 2,0 7,1 8 5 14 7 SSE - 0 0,0
11.12.2017 23:00:00 3,0 1,2 0,0 1,9 7,1 9 5 29 15 S - 0 0,0
11.12.2017 22:00:00 3,0 1,7 0,0 1,9 7,2 8 4 52 28 SSW - 0 0,8
11.12.2017 21:00:00 4,1 3,2 0,0 1,9 7,2 24 13 51 28 SSW - 0 2,4
11.12.2017 20:00:00 4,9 4,9 0,0 2,0 7,2 24 13 37 20 SSW - 0 4,3
11.12.2017 19:00:00 1,9 1,8 0,0 2,0 7,2 6 3 19 11 N - 0 2,8
11.12.2017 18:00:00 1,6 1,3 0,0 2,1 7,3 5 3 26 14 NNE - 0 2,0
11.12.2017 17:00:00 2,0 1,7 0,0 2,1 7,3 10 5 32 17 NNE - 0 4,9
11.12.2017 16:00:00 2,4 2,0 0,0 2,2 7,3 20 11 32 18 NNE - 0 3,6
11.12.2017 15:00:00 2,5 1,9 0,0 2,4 7,4 17 9 36 20 NNE - 0 3,4
11.12.2017 14:00:00 2,5 2,2 0,0 2,5 7,4 16 9 27 15 NNE - 0 4,7
11.12.2017 13:00:00 2,5 2,4 0,0 2,5 7,4 9 5 22 12 NE - 0 4,2
11.12.2017 12:00:00 3,4 3,3 0,0 2,5 7,5 5 3 11 6 NNE - 0 5,2
11.12.2017 11:00:00 3,5 3,5 0,0 2,6 7,5 7 4 11 6 N - 0 4,7
11.12.2017 10:00:00 2,8 2,8 0,0 2,6 7,6 3 2 9 5 N - 0 3,2
11.12.2017 09:00:00 2,4 2,4 -0,1 2,6 7,7 2 1 11 6 NNE - 0 1,6
11.12.2017 08:00:00 1,7 1,7 -0,1 2,6 7,7 3 2 6 3 NW - 0 1,2
11.12.2017 07:00:00 1,4 1,3 -0,1 2,6 7,7 3 2 8 4 N - 0 1,0
11.12.2017 06:00:00 1,0 1,0 -0,1 2,7 7,7 4 2 9 5 ENE - 0 0,8
11.12.2017 05:00:00 1,3 1,3 -0,1 2,7 7,8 6 3 13 7 NNE - 0 1,0
11.12.2017 04:00:00 0,9 0,8 -0,1 2,7 7,8 3 2 14 7 NNE 4,9 0 1,5
11.12.2017 03:00:00 0,7 0,6 -0,1 2,7 7,8 5 3 12 7 NNE 3,0 0 1,8

tt = Température de l'air
td = dewpoint
tt 5cm = Température de l'air 5cm
tt -20cm = Température de l'air -20cm
tt -100cm = Température de l'air -100cm
ff = Vitesse du vent
fx = gusts
dd = Direction du vent
vv = visibility
sd = Ensoleillement
rr = Quantités de précipitations

stations d'obs. à proximité